Current Weather



TAF Data Links

METAR Data Links

Latest METAR/TAF Data


Available data for KAUS from the past 2 hours
AUSTIN, TX
Metar
KAUS 271108Z 00000KT 8SM SCT006 SCT012 OVC150 24/24 A3000 RMK AO2 T02390239 $

11:08 UTC

Wind: 0° 0kt

Visibility: 8 SM

Sky: SCT 600 ft

Temp: 24 deg C / 75.2 deg F

Dewpoint: 24 deg C / 75.2 deg F

Pressure: 30 inHg

TAF
KAUS 270520Z 2706/2812 16003KT P6SM VCSH BKN050 FM270800 13002KT P6SM OVC070 FM271100 00000KT P6SM OVC012 FM271400 05003KT P6SM BKN012 FM271700 09007KT P6SM VCSH BKN040


Available data for KEDC from the past 2 hours
AUSTIN EXEC, TX
Metar
KEDC 271115Z AUTO 00000KT 7SM 23/23 A3002 RMK AO2


Available data for KRYW from the past 2 hours
LAGO VISTA, TX
Metar
KRYW 271115Z AUTO 00000KT 4SM BR SCT006 23/22 A3004 RMK AO2 T02280222

11:15 UTC

Wind: 0° 0kt

Visibility: 4 SM

Sky: SCT 600 ft

Temp: 23 deg C / 73.4 deg F

Dewpoint: 22 deg C / 71.6 deg F

Pressure: 30.04 inHg